Time;durP1;ratioP1;P1;durP2;ratioP2;P2;SDS_P1;SDS_P2;PMS_P1;PMS_P2;Temp;Humidity;BMP_temperature;BMP_pressure;BME280_temperature;BME280_humidity;BME280_pressure;Samples;Min_cycle;Max_cycle;Signal;HPM_P1;HPM_P2
2023/07/26 00:00:53;;;;;;;20.02;8.57;;;;;;;18.22;77.25;98666.38;5077125;28;20055;-75
2023/07/26 00:03:37;;;;;;;15.00;8.18;;;;;;;18.31;77.32;98658.72;5074071;28;21044;-75
2023/07/26 00:06:21;;;;;;;15.70;8.10;;;;;;;18.47;76.76;98661.47;5062665;28;20091;-74
2023/07/26 00:09:08;;;;;;;14.05;8.10;;;;;;;18.62;76.90;98661.56;5069910;28;20098;-74
2023/07/26 00:11:52;;;;;;;16.77;8.65;;;;;;;18.02;78.33;98644.97;5073269;28;20509;-74
2023/07/26 00:14:36;;;;;;;18.13;9.23;;;;;;;18.27;78.39;98653.13;5071502;28;20051;-74
2023/07/26 00:17:20;;;;;;;19.77;8.63;;;;;;;18.24;78.03;98643.00;5073513;28;20551;-74
2023/07/26 00:20:04;;;;;;;23.02;9.52;;;;;;;18.34;78.20;98644.94;5075739;28;20515;-75
2023/07/26 00:22:49;;;;;;;15.88;8.45;;;;;;;18.30;77.59;98630.56;5072183;28;20498;-74
2023/07/26 00:25:33;;;;;;;19.25;8.43;;;;;;;18.25;77.81;98638.47;5073292;28;20039;-74
2023/07/26 00:28:20;;;;;;;17.13;8.43;;;;;;;18.08;77.72;98631.47;5075003;28;20089;-74
2023/07/26 00:31:04;;;;;;;15.68;8.30;;;;;;;18.58;76.46;98617.97;5075358;28;20166;-74
2023/07/26 00:33:48;;;;;;;14.98;8.20;;;;;;;17.93;77.81;98626.00;5074170;28;20085;-75
2023/07/26 00:36:32;;;;;;;17.27;8.50;;;;;;;17.83;78.32;98613.44;5077353;28;20455;-74
2023/07/26 00:39:17;;;;;;;20.92;7.95;;;;;;;18.06;77.49;98625.59;5075864;28;20123;-74
2023/07/26 00:42:01;;;;;;;18.23;9.25;;;;;;;18.16;77.25;98624.09;5075639;28;20094;-75
2023/07/26 00:44:46;;;;;;;15.85;8.77;;;;;;;18.33;76.48;98619.41;5077754;28;20047;-75
2023/07/26 00:47:30;;;;;;;15.20;8.07;;;;;;;18.56;75.72;98622.75;5077913;28;20040;-75
2023/07/26 00:50:14;;;;;;;15.73;8.23;;;;;;;18.58;75.19;98623.28;5076264;28;20505;-75
2023/07/26 00:52:57;;;;;;;16.67;9.27;;;;;;;18.41;75.65;98616.28;5077693;28;20056;-75
2023/07/26 00:55:43;;;;;;;16.20;9.25;;;;;;;18.36;76.04;98632.19;5076354;28;20090;-74
2023/07/26 00:58:28;;;;;;;16.65;8.50;;;;;;;18.31;76.25;98626.84;5078210;28;20046;-75
2023/07/26 01:01:15;;;;;;;15.23;7.57;;;;;;;18.30;76.08;98635.88;5079058;28;20050;-74
2023/07/26 01:03:59;;;;;;;15.60;8.27;;;;;;;17.98;77.20;98640.13;5076660;28;20166;-75
2023/07/26 01:07:01;;;;;;;16.05;8.25;;;;;;;18.15;76.74;98644.50;5077703;28;20062;-75
2023/07/26 01:10:00;;;;;;;16.33;8.73;;;;;;;18.13;76.56;98642.13;5077251;28;20085;-75
2023/07/26 01:13:03;;;;;;;14.63;8.77;;;;;;;18.33;76.39;98646.00;5077977;28;20048;-74
2023/07/26 01:15:49;;;;;;;18.15;9.05;;;;;;;18.23;76.68;98643.25;5079772;28;20097;-75
2023/07/26 01:18:33;;;;;;;17.38;9.02;;;;;;;18.21;76.82;98654.16;5078308;28;20093;-75
2023/07/26 01:21:17;;;;;;;19.30;8.85;;;;;;;18.26;76.62;98650.69;5078202;28;20381;-75
2023/07/26 01:24:01;;;;;;;16.17;8.77;;;;;;;18.30;76.05;98635.06;5077600;28;20051;-75
2023/07/26 01:26:45;;;;;;;13.70;8.70;;;;;;;18.18;76.28;98644.03;5068822;28;20505;-75
2023/07/26 01:29:29;;;;;;;17.77;8.43;;;;;;;18.18;76.32;98643.22;5075056;28;20090;-75
2023/07/26 01:32:16;;;;;;;13.80;8.10;;;;;;;18.39;76.07;98644.97;5074180;28;20079;-82
2023/07/26 01:35:00;;;;;;;17.48;8.25;;;;;;;18.37;76.10;98646.25;5083970;28;20108;-82
2023/07/26 01:37:44;;;;;;;14.93;8.68;;;;;;;18.19;76.59;98650.94;5078600;28;20120;-83
2023/07/26 01:40:28;;;;;;;17.40;8.27;;;;;;;18.27;77.04;98657.63;5081235;28;20044;-83
2023/07/26 01:43:12;;;;;;;15.35;8.38;;;;;;;18.33;76.90;98661.13;5082627;28;20150;-83
2023/07/26 01:45:56;;;;;;;15.77;8.52;;;;;;;18.37;76.93;98659.53;5082946;28;20047;-82
2023/07/26 01:48:41;;;;;;;18.83;9.55;;;;;;;18.44;76.99;98651.34;5081110;28;20039;-83
2023/07/26 01:51:25;;;;;;;15.50;8.20;;;;;;;18.46;76.99;98651.91;5080232;28;20123;-83
2023/07/26 01:54:10;;;;;;;16.27;8.70;;;;;;;18.31;77.12;98650.75;5079205;28;20066;-82
2023/07/26 01:56:54;;;;;;;14.75;8.43;;;;;;;18.36;77.09;98649.97;5082124;28;20094;-83
2023/07/26 01:59:38;;;;;;;17.85;9.38;;;;;;;18.45;76.71;98643.16;5082350;28;20402;-82
2023/07/26 02:02:22;;;;;;;16.20;8.43;;;;;;;18.52;76.35;98648.25;5079599;28;20059;-82
2023/07/26 02:05:06;;;;;;;15.90;9.63;;;;;;;18.37;76.79;98649.72;5077884;28;20455;-83
2023/07/26 02:07:50;;;;;;;14.93;8.30;;;;;;;18.10;77.41;98647.94;5082407;28;20062;-84
2023/07/26 02:10:34;;;;;;;16.98;8.20;;;;;;;18.28;76.97;98648.63;5082134;28;20031;-82
2023/07/26 02:13:19;;;;;;;18.05;8.27;;;;;;;18.16;77.37;98642.69;5084714;28;20081;-83
2023/07/26 02:16:03;;;;;;;15.63;8.13;;;;;;;18.23;77.03;98645.91;5088094;28;20046;-84
2023/07/26 02:18:47;;;;;;;13.98;8.65;;;;;;;18.35;76.51;98641.22;5082566;28;20505;-82
2023/07/26 02:21:31;;;;;;;14.40;8.02;;;;;;;17.95;76.52;98629.22;5075966;28;20545;-83
2023/07/26 02:24:15;;;;;;;16.63;8.75;;;;;;;18.28;75.94;98616.75;5073456;28;20581;-82
2023/07/26 02:26:59;;;;;;;14.27;8.38;;;;;;;18.31;75.42;98632.16;5081456;28;20544;-83
2023/07/26 02:29:44;;;;;;;14.93;8.00;;;;;;;18.28;75.29;98638.00;5080177;28;20046;-83
2023/07/26 02:32:29;;;;;;;15.27;7.22;;;;;;;18.03;75.57;98636.72;5079986;28;20070;-83
2023/07/26 02:35:12;;;;;;;12.70;7.80;;;;;;;18.15;74.76;98633.09;5084928;28;20039;-83
2023/07/26 02:37:56;;;;;;;11.57;7.50;;;;;;;18.17;75.00;98631.78;5085067;28;20082;-82
2023/07/26 02:40:40;;;;;;;13.00;7.05;;;;;;;18.20;74.28;98633.13;5080084;28;20035;-82
2023/07/26 02:43:24;;;;;;;14.35;7.40;;;;;;;18.41;74.18;98624.25;5078483;28;20570;-82
2023/07/26 02:46:09;;;;;;;15.13;7.43;;;;;;;17.96;74.63;98626.28;5078345;28;20512;-84
2023/07/26 02:48:53;;;;;;;14.80;7.10;;;;;;;18.31;74.25;98618.88;5083273;28;20047;-84
2023/07/26 02:51:37;;;;;;;14.85;7.22;;;;;;;18.45;73.65;98613.09;5077663;28;20169;-84
2023/07/26 02:54:21;;;;;;;16.42;7.97;;;;;;;18.44;72.73;98616.81;5078068;28;20453;-84
2023/07/26 02:57:05;;;;;;;15.07;7.93;;;;;;;18.34;73.89;98622.88;5082297;28;20098;-84
2023/07/26 02:59:50;;;;;;;12.38;7.60;;;;;;;18.47;73.46;98624.28;5079543;28;20051;-83
2023/07/26 03:02:34;;;;;;;11.98;6.75;;;;;;;18.05;74.51;98621.34;5078112;28;20054;-83
2023/07/26 03:05:18;;;;;;;14.90;7.70;;;;;;;18.17;74.10;98620.38;5078078;28;20043;-83
2023/07/26 03:08:02;;;;;;;16.38;8.23;;;;;;;18.48;73.42;98617.91;5082144;28;20055;-83
2023/07/26 03:10:46;;;;;;;13.38;7.40;;;;;;;18.23;73.94;98614.03;5074566;28;20070;-82
2023/07/26 03:13:30;;;;;;;11.00;6.90;;;;;;;18.44;73.38;98604.34;5080899;28;20038;-82
2023/07/26 03:16:16;;;;;;;17.98;7.47;;;;;;;18.27;73.62;98604.47;5078103;28;20035;-82
2023/07/26 03:19:01;;;;;;;13.68;7.15;;;;;;;18.21;73.79;98600.19;5079180;28;20129;-82
2023/07/26 03:21:45;;;;;;;13.63;7.85;;;;;;;18.01;74.47;98596.31;5086142;28;20038;-82
2023/07/26 03:24:29;;;;;;;11.32;6.75;;;;;;;18.12;73.73;98583.94;5077051;28;20043;-81
2023/07/26 03:27:13;;;;;;;12.20;6.65;;;;;;;18.07;73.78;98590.00;5081791;28;20055;-81
2023/07/26 03:29:57;;;;;;;12.63;6.45;;;;;;;18.05;73.90;98592.13;5084778;28;20082;-81
2023/07/26 03:32:41;;;;;;;9.55;6.10;;;;;;;18.12;73.79;98590.06;5086490;28;20507;-82
2023/07/26 03:35:25;;;;;;;10.88;5.93;;;;;;;17.96;73.94;98598.94;5078440;28;20063;-82
2023/07/26 03:38:09;;;;;;;12.25;6.28;;;;;;;17.84;73.99;98594.59;5081779;28;20042;-82
2023/07/26 03:40:54;;;;;;;12.25;5.47;;;;;;;18.07;73.42;98594.53;5086881;28;20055;-82
2023/07/26 03:43:38;;;;;;;10.75;6.35;;;;;;;17.88;73.57;98594.91;5079396;28;20089;-83
2023/07/26 03:46:22;;;;;;;8.73;5.38;;;;;;;18.41;72.13;98589.69;5079433;28;20051;-82
2023/07/26 03:49:05;;;;;;;14.00;5.88;;;;;;;18.30;72.17;98588.06;5077528;28;20436;-83
2023/07/26 03:51:49;;;;;;;14.90;6.15;;;;;;;18.12;72.82;98586.59;5080490;28;20039;-83
2023/07/26 03:54:33;;;;;;;16.73;5.90;;;;;;;18.10;73.08;98599.34;5078827;28;20090;-83
2023/07/26 03:57:17;;;;;;;8.13;5.15;;;;;;;18.04;73.17;98590.53;5080356;28;20117;-83
2023/07/26 04:00:02;;;;;;;10.23;6.20;;;;;;;17.99;73.23;98598.44;5083166;28;20514;-83
2023/07/26 04:02:46;;;;;;;11.07;5.57;;;;;;;17.81;73.90;98595.09;5083531;28;20061;-82
2023/07/26 04:05:31;;;;;;;8.55;5.95;;;;;;;17.83;73.89;98594.88;5085322;28;20039;-83
2023/07/26 04:08:15;;;;;;;12.98;6.25;;;;;;;17.82;74.08;98598.56;5080109;28;20098;-82
2023/07/26 04:11:02;;;;;;;10.32;5.35;;;;;;;17.70;74.41;98593.44;5084605;28;20036;-83
2023/07/26 04:13:48;;;;;;;8.95;5.32;;;;;;;17.61;74.38;98589.63;5082303;28;20474;-83
2023/07/26 04:16:32;;;;;;;11.27;5.93;;;;;;;17.44;75.73;98589.75;5086414;28;20043;-82
2023/07/26 04:19:15;;;;;;;14.18;6.30;;;;;;;17.40;75.88;98608.81;5080608;28;20459;-83
2023/07/26 04:22:00;;;;;;;11.07;5.75;;;;;;;17.32;75.76;98596.00;5084789;28;20043;-82
2023/07/26 04:24:44;;;;;;;11.93;7.07;;;;;;;17.25;76.65;98593.53;5088494;28;20082;-82
2023/07/26 04:27:28;;;;;;;12.02;5.90;;;;;;;17.26;76.54;98595.13;5082046;28;20043;-83
2023/07/26 04:30:12;;;;;;;10.00;6.18;;;;;;;17.28;76.45;98606.28;5083053;28;20504;-85
2023/07/26 04:32:56;;;;;;;15.13;7.07;;;;;;;17.32;76.63;98598.63;5080586;28;20397;-84
2023/07/26 04:35:40;;;;;;;14.38;6.35;;;;;;;17.52;76.97;98598.06;5088072;28;20035;-83
2023/07/26 04:38:25;;;;;;;11.73;6.85;;;;;;;17.90;76.31;98603.41;5079588;28;20120;-83
2023/07/26 04:41:10;;;;;;;10.43;6.25;;;;;;;18.16;75.46;98597.53;5083932;28;20406;-84
2023/07/26 04:43:54;;;;;;;12.25;6.13;;;;;;;17.91;74.99;98596.25;5081061;28;20100;-83
2023/07/26 04:46:38;;;;;;;14.27;6.75;;;;;;;18.48;73.99;98609.94;5081120;28;20508;-83
2023/07/26 04:49:22;;;;;;;9.48;5.53;;;;;;;18.84;73.18;98607.44;5082945;28;20600;-83
2023/07/26 04:52:06;;;;;;;10.63;5.93;;;;;;;18.92;73.42;98612.28;5085862;28;20501;-83
2023/07/26 04:54:51;;;;;;;8.27;5.38;;;;;;;18.97;73.29;98596.34;5083522;28;20108;-82
2023/07/26 04:57:38;;;;;;;12.88;6.03;;;;;;;18.95;73.46;98603.78;5080090;28;20038;-83
2023/07/26 05:00:22;;;;;;;8.95;5.57;;;;;;;19.32;73.20;98611.91;5079988;28;20103;-83
2023/07/26 05:03:06;;;;;;;10.32;4.95;;;;;;;19.47;72.93;98614.59;5083506;28;20127;-82
2023/07/26 05:05:51;;;;;;;9.45;5.82;;;;;;;19.22;72.97;98602.81;5082549;28;20043;-81
2023/07/26 05:08:35;;;;;;;11.15;5.75;;;;;;;19.45;72.32;98614.03;5063163;28;20043;-83
2023/07/26 05:11:20;;;;;;;10.63;6.00;;;;;;;19.28;72.02;98606.28;5047746;28;20590;-82
2023/07/26 05:14:04;;;;;;;9.30;5.25;;;;;;;19.52;72.46;98617.25;5059349;28;20140;-83
2023/07/26 05:16:48;;;;;;;;;;;;;;;19.41;72.42;98600.47;5062899;28;20035;-84
2023/07/26 05:19:32;;;;;;;12.68;6.18;;;;;;;19.56;72.54;98617.53;5060147;28;19927;-83
2023/07/26 05:22:16;;;;;;;11.07;6.38;;;;;;;19.31;72.99;98605.78;5062886;28;20529;-82
2023/07/26 05:25:00;;;;;;;10.45;6.15;;;;;;;19.66;71.86;98606.91;5062985;28;20056;-82
2023/07/26 05:27:44;;;;;;;12.73;6.43;;;;;;;19.91;71.90;98601.84;5058827;28;20043;-82
2023/07/26 05:30:28;;;;;;;11.73;6.03;;;;;;;20.00;71.71;98604.81;5060803;28;20518;-83
2023/07/26 05:33:12;;;;;;;12.80;6.45;;;;;;;20.39;71.09;98597.00;5059788;28;20094;-84
2023/07/26 05:35:55;;;;;;;11.70;5.55;;;;;;;20.65;71.02;98604.13;5061912;28;20075;-85
2023/07/26 05:38:39;;;;;;;10.45;5.95;;;;;;;20.27;71.52;98609.84;5066361;28;20047;-86
2023/07/26 05:41:26;;;;;;;11.43;6.28;;;;;;;20.47;71.19;98608.97;5065140;28;20044;-85
2023/07/26 05:44:10;;;;;;;13.93;7.05;;;;;;;20.66;71.10;98601.22;5054676;28;20120;-85
2023/07/26 05:46:54;;;;;;;9.65;6.43;;;;;;;20.93;70.18;98616.06;5062724;28;20085;-85
2023/07/26 05:49:43;;;;;;;11.38;6.43;;;;;;;21.22;69.69;98606.59;5061623;28;20048;-87
2023/07/26 05:52:27;;;;;;;10.93;6.32;;;;;;;21.40;69.95;98610.47;5061583;28;20039;-86
2023/07/26 05:55:12;;;;;;;9.98;5.75;;;;;;;21.23;69.88;98603.66;5062130;28;20040;-86
2023/07/26 05:57:57;;;;;;;10.80;5.97;;;;;;;21.65;69.88;98604.19;5056700;28;20153;-86
2023/07/26 06:00:41;;;;;;;17.23;7.35;;;;;;;21.28;70.52;98607.38;5061806;28;20039;-86
2023/07/26 06:03:26;;;;;;;11.75;6.35;;;;;;;21.49;70.64;98605.34;5056349;28;20087;-86
2023/07/26 06:06:10;;;;;;;9.70;6.65;;;;;;;21.48;70.53;98611.75;5064883;28;20103;-87
2023/07/26 06:08:54;;;;;;;10.20;6.13;;;;;;;21.58;70.84;98608.22;5080457;28;20097;-87
2023/07/26 06:11:38;;;;;;;15.18;7.65;;;;;;;21.60;70.65;98614.09;5079916;28;20397;-87
2023/07/26 06:14:24;;;;;;;12.05;6.43;;;;;;;21.01;71.91;98614.69;5082232;28;20085;-88
2023/07/26 06:17:11;;;;;;;13.55;7.20;;;;;;;21.08;72.06;98617.84;5084188;28;20047;-87
2023/07/26 06:19:55;;;;;;;15.57;7.15;;;;;;;20.98;72.20;98623.25;5080040;28;20394;-87
2023/07/26 06:22:39;;;;;;;12.43;7.00;;;;;;;21.13;71.96;98619.72;5077495;28;20554;-87
2023/07/26 06:25:23;;;;;;;14.25;7.18;;;;;;;21.39;71.79;98622.22;5078506;28;20534;-87
2023/07/26 06:28:07;;;;;;;10.40;6.25;;;;;;;21.09;72.40;98618.66;5080142;28;20039;-88
2023/07/26 06:30:52;;;;;;;11.30;7.05;;;;;;;21.32;71.89;98616.41;5074501;28;20181;-86
2023/07/26 06:33:36;;;;;;;16.65;7.55;;;;;;;21.55;71.31;98610.38;5076530;28;20105;-84
2023/07/26 06:36:20;;;;;;;13.77;7.18;;;;;;;21.39;71.44;98611.56;5076744;28;20094;-85
2023/07/26 06:39:04;;;;;;;11.25;6.53;;;;;;;21.45;72.19;98615.00;5080152;28;20059;-86
2023/07/26 06:41:48;;;;;;;11.85;6.82;;;;;;;21.53;71.86;98607.19;5078318;28;20043;-87
2023/07/26 06:44:32;;;;;;;11.55;6.55;;;;;;;21.62;71.27;98604.72;5075399;28;20039;-90
2023/07/26 06:47:17;;;;;;;10.52;6.80;;;;;;;21.78;71.37;98613.44;5079343;28;20039;-84
2023/07/26 06:50:01;;;;;;;11.55;6.50;;;;;;;21.89;71.70;98613.38;5084252;28;20100;-85
2023/07/26 06:52:45;;;;;;;9.75;6.20;;;;;;;21.85;71.98;98601.66;5077313;28;20087;-83
2023/07/26 06:55:31;;;;;;;13.52;6.97;;;;;;;22.30;71.24;98612.19;5074671;28;20039;-82
2023/07/26 06:58:15;;;;;;;12.18;6.22;;;;;;;22.34;71.76;98603.31;5083691;28;20622;-83
2023/07/26 07:00:59;;;;;;;10.50;7.15;;;;;;;22.57;70.79;98600.97;5076984;28;20043;-82
2023/07/26 07:03:43;;;;;;;15.90;7.00;;;;;;;22.61;69.62;98607.38;5081136;28;20085;-81
2023/07/26 07:06:27;;;;;;;12.75;6.97;;;;;;;22.83;70.67;98619.41;5083532;28;20056;-80
2023/07/26 07:09:12;;;;;;;11.43;7.18;;;;;;;22.62;70.46;98602.81;5082285;28;20089;-79
2023/07/26 07:11:57;;;;;;;16.77;8.38;;;;;;;22.34;69.73;98615.91;5085247;28;20040;-80
2023/07/26 07:14:41;;;;;;;10.80;6.95;;;;;;;22.36;70.62;98606.50;5080923;28;20110;-79
2023/07/26 07:17:25;;;;;;;11.73;6.85;;;;;;;22.75;70.57;98601.31;5079293;28;20047;-81
2023/07/26 07:20:10;;;;;;;13.73;7.93;;;;;;;22.89;69.55;98617.47;5078085;28;20097;-76
2023/07/26 07:22:54;;;;;;;14.93;7.28;;;;;;;22.82;70.34;98609.81;5070748;28;20051;-75
2023/07/26 07:25:38;;;;;;;13.07;7.90;;;;;;;23.16;69.45;98616.84;5076294;28;20039;-75
2023/07/26 07:28:23;;;;;;;11.82;7.20;;;;;;;23.32;68.85;98614.00;5058146;28;20052;-74
2023/07/26 07:31:07;;;;;;;10.38;6.95;;;;;;;23.37;68.20;98611.22;5073513;28;20051;-75
2023/07/26 07:33:51;;;;;;;12.93;8.07;;;;;;;23.66;68.31;98607.59;5072767;28;20512;-75
2023/07/26 07:36:35;;;;;;;13.77;7.47;;;;;;;23.93;68.51;98612.25;5071063;28;20394;-75
2023/07/26 07:39:19;;;;;;;12.35;6.88;;;;;;;23.54;67.93;98614.19;5075847;28;20116;-75
2023/07/26 07:42:04;;;;;;;10.80;7.40;;;;;;;24.33;68.01;98611.84;5073488;28;20520;-75
2023/07/26 07:44:48;;;;;;;11.13;7.00;;;;;;;24.24;67.22;98606.38;5080464;28;20537;-75
2023/07/26 07:47:32;;;;;;;13.75;6.88;;;;;;;24.03;67.66;98616.69;5072144;28;20043;-75
2023/07/26 07:50:16;;;;;;;10.00;6.70;;;;;;;23.47;68.36;98623.69;5066216;28;20505;-75
2023/07/26 07:53:01;;;;;;;10.52;7.05;;;;;;;23.70;67.81;98602.47;5071502;28;20477;-75
2023/07/26 07:55:45;;;;;;;11.00;7.00;;;;;;;23.15;68.54;98604.53;5068873;28;20124;-75
2023/07/26 07:58:29;;;;;;;13.70;7.20;;;;;;;23.81;68.66;98610.03;5068595;28;20109;-75
2023/07/26 08:01:13;;;;;;;10.80;7.15;;;;;;;23.89;68.61;98605.91;5071135;28;20146;-75
2023/07/26 08:03:59;;;;;;;11.02;7.15;;;;;;;23.93;67.62;98595.38;5072296;28;20063;-74
2023/07/26 08:06:44;;;;;;;12.27;7.68;;;;;;;23.76;67.91;98604.75;5075367;28;20139;-75
2023/07/26 08:09:27;;;;;;;13.15;7.75;;;;;;;23.50;68.73;98593.66;5072694;28;20043;-75
2023/07/26 08:12:12;;;;;;;12.70;7.32;;;;;;;23.69;69.07;98596.31;5070830;28;20082;-75
2023/07/26 08:14:55;;;;;;;10.68;6.88;;;;;;;23.85;69.20;98596.84;5072542;28;20519;-75
2023/07/26 08:17:40;;;;;;;11.00;6.78;;;;;;;23.45;69.14;98602.56;5079334;28;20169;-76
2023/07/26 08:20:25;;;;;;;11.45;6.97;;;;;;;23.44;68.63;98603.66;5073431;28;20039;-75
2023/07/26 08:23:09;;;;;;;12.43;6.97;;;;;;;23.22;68.46;98610.34;5069361;28;20090;-75
2023/07/26 08:25:53;;;;;;;12.00;6.88;;;;;;;22.93;68.65;98613.94;5077659;28;20117;-75
2023/07/26 08:28:37;;;;;;;11.75;7.57;;;;;;;23.00;68.16;98607.44;5075826;28;20106;-76
2023/07/26 08:31:21;;;;;;;13.40;7.95;;;;;;;23.16;68.70;98606.13;5075926;28;20043;-76
2023/07/26 08:34:05;;;;;;;11.00;6.95;;;;;;;23.17;68.71;98621.13;5076627;28;20069;-76
2023/07/26 08:36:50;;;;;;;13.05;7.40;;;;;;;23.67;67.81;98620.69;5079485;28;20035;-76
2023/07/26 08:39:34;;;;;;;11.50;6.80;;;;;;;23.89;67.80;98623.84;5077052;28;20059;-75
2023/07/26 08:42:18;;;;;;;14.68;7.32;;;;;;;24.25;67.27;98616.00;5076639;28;20493;-76
2023/07/26 08:45:04;;;;;;;10.30;6.80;;;;;;;24.06;66.34;98620.66;5074033;28;20151;-76
2023/07/26 08:47:49;;;;;;;9.45;6.85;;;;;;;24.10;66.76;98627.81;5077271;28;20101;-76
2023/07/26 08:50:34;;;;;;;11.10;6.78;;;;;;;24.49;66.09;98616.94;5080535;28;20101;-76
2023/07/26 08:53:18;;;;;;;12.23;7.05;;;;;;;24.48;65.28;98615.34;5080396;28;20106;-77
2023/07/26 08:56:03;;;;;;;11.30;7.22;;;;;;;24.63;65.04;98614.25;5077496;28;20050;-75
2023/07/26 08:58:47;;;;;;;12.15;7.15;;;;;;;24.85;65.22;98613.59;5080724;28;20039;-77
2023/07/26 09:01:31;;;;;;;11.05;7.47;;;;;;;24.91;64.34;98609.69;5078098;28;20086;-76
2023/07/26 09:04:16;;;;;;;10.88;6.30;;;;;;;25.48;64.42;98608.47;5079320;28;20043;-77
2023/07/26 09:07:04;;;;;;;11.10;6.95;;;;;;;25.66;62.85;98604.03;5081161;28;20100;-76
2023/07/26 09:09:48;;;;;;;10.95;6.88;;;;;;;25.41;62.58;98602.72;5076609;28;20093;-76
2023/07/26 09:12:32;;;;;;;10.20;6.35;;;;;;;25.12;62.00;98597.72;5079833;28;20071;-75
2023/07/26 09:15:18;;;;;;;9.23;6.07;;;;;;;24.95;62.57;98591.88;5078500;28;20081;-76
2023/07/26 09:18:06;;;;;;;8.73;6.38;;;;;;;25.03;62.84;98592.28;5080934;28;20166;-76
2023/07/26 09:21:01;;;;;;;10.25;6.20;;;;;;;24.65;62.28;98593.28;5081745;28;20059;-76
2023/07/26 09:23:45;;;;;;;9.98;6.05;;;;;;;24.51;62.69;98595.97;5077112;28;20090;-76
2023/07/26 09:26:33;;;;;;;13.25;7.15;;;;;;;24.64;61.98;98591.69;5078683;28;20071;-76
2023/07/26 09:29:18;;;;;;;10.60;6.05;;;;;;;24.66;61.89;98589.50;5082637;28;20101;-76
2023/07/26 09:32:03;;;;;;;9.13;5.70;;;;;;;24.95;61.44;98585.72;5082392;28;20571;-76
2023/07/26 09:34:47;;;;;;;9.65;6.13;;;;;;;25.07;61.22;98582.53;5078616;28;20501;-75
2023/07/26 09:37:36;;;;;;;9.85;6.05;;;;;;;25.44;62.22;98575.25;5074076;28;20043;-76
2023/07/26 09:40:33;;;;;;;13.20;6.35;;;;;;;25.38;59.72;98573.78;5073158;28;20105;-76
2023/07/26 09:43:32;;;;;;;9.82;6.38;;;;;;;25.34;60.10;98586.22;5077393;28;20067;-76
2023/07/26 09:46:17;;;;;;;11.30;5.93;;;;;;;25.04;58.92;98580.44;5075656;28;20062;-76
2023/07/26 09:49:02;;;;;;;9.93;6.30;;;;;;;25.23;59.16;98582.97;5078755;28;20093;-76
2023/07/26 09:51:46;;;;;;;11.50;6.28;;;;;;;24.88;60.28;98583.44;5078286;28;20120;-76
2023/07/26 09:54:32;;;;;;;10.07;6.18;;;;;;;24.46;58.75;98585.34;5075248;28;20047;-75
2023/07/26 09:57:19;;;;;;;11.10;6.75;;;;;;;24.71;58.51;98585.94;5076000;28;20039;-75
2023/07/26 10:00:04;;;;;;;11.05;6.40;;;;;;;24.68;60.34;98588.13;5072645;28;21187;-75
2023/07/26 10:02:58;;;;;;;9.93;6.22;;;;;;;25.21;58.62;98579.78;5079953;28;20128;-75
2023/07/26 10:05:44;;;;;;;;;;;;;;;25.28;58.68;98580.19;5077036;28;20081;-75
2023/07/26 10:08:29;;;;;;;9.88;5.68;;;;;;;25.47;58.72;98579.22;5082195;28;20332;-76
2023/07/26 10:11:21;;;;;;;9.32;6.30;;;;;;;25.63;59.62;98580.44;5079097;28;20047;-75
2023/07/26 10:14:06;;;;;;;10.63;5.95;;;;;;;25.45;58.54;98571.44;5075140;28;20046;-77
2023/07/26 10:16:53;;;;;;;10.32;5.65;;;;;;;25.84;59.45;98577.25;5079068;28;20052;-76
2023/07/26 10:19:38;;;;;;;8.93;6.28;;;;;;;25.63;59.15;98576.97;5075835;28;20051;-75
2023/07/26 10:22:23;;;;;;;11.90;6.60;;;;;;;25.34;59.99;98570.09;5076699;28;20089;-76
2023/07/26 10:25:08;;;;;;;11.00;6.95;;;;;;;25.62;58.36;98570.03;5078545;28;20043;-76
2023/07/26 10:27:53;;;;;;;8.55;5.82;;;;;;;26.03;57.12;98566.28;5082326;28;20124;-76
2023/07/26 10:30:38;;;;;;;9.73;5.50;;;;;;;26.20;55.75;98562.91;5084272;28;20039;-77
2023/07/26 10:33:22;;;;;;;7.47;5.32;;;;;;;26.67;55.36;98561.63;5081832;28;20047;-76
2023/07/26 10:36:09;;;;;;;8.43;5.75;;;;;;;27.45;54.03;98554.72;5078014;28;20046;-78
2023/07/26 10:38:54;;;;;;;7.00;4.50;;;;;;;27.03;51.32;98567.88;5078992;28;20442;-77
2023/07/26 10:41:48;;;;;;;7.88;5.53;;;;;;;27.32;50.54;98558.38;5075327;28;20086;-76
2023/07/26 10:44:41;;;;;;;7.20;4.93;;;;;;;28.11;51.00;98552.81;5075759;28;20043;-76
2023/07/26 10:47:25;;;;;;;6.63;5.03;;;;;;;28.64;52.53;98547.97;5079990;28;20051;-76
2023/07/26 10:50:09;;;;;;;8.10;5.00;;;;;;;29.13;52.35;98552.13;5081058;28;20039;-77
2023/07/26 10:52:54;;;;;;;6.32;4.40;;;;;;;29.24;49.33;98546.28;5078751;28;20051;-76
2023/07/26 10:55:38;;;;;;;7.40;5.22;;;;;;;29.15;51.67;98544.47;5081384;28;20093;-76
2023/07/26 10:58:22;;;;;;;8.57;5.93;;;;;;;28.94;50.53;98539.06;5079163;28;20034;-77
2023/07/26 11:01:32;;;;;;;7.72;5.65;;;;;;;29.14;50.93;98542.88;5076418;28;20047;-76
2023/07/26 11:04:21;;;;;;;7.50;5.05;;;;;;;29.05;49.83;98540.25;5078696;28;20440;-76
2023/07/26 11:07:05;;;;;;;6.95;5.45;;;;;;;28.76;50.35;98547.25;5077224;28;20536;-76
2023/07/26 11:09:50;;;;;;;6.90;5.18;;;;;;;29.05;49.96;98531.34;5080491;28;20030;-76
2023/07/26 11:12:35;;;;;;;5.80;5.20;;;;;;;29.43;49.51;98537.72;5077254;28;20043;-76
2023/07/26 11:15:32;;;;;;;10.52;5.63;;;;;;;29.71;49.41;98534.41;5076161;28;20097;-76
2023/07/26 11:18:18;;;;;;;7.90;5.35;;;;;;;28.77;49.48;98537.25;5078249;28;20497;-76
2023/07/26 11:21:02;;;;;;;7.75;5.75;;;;;;;28.56;51.26;98535.34;5079629;28;20088;-76
2023/07/26 11:23:46;;;;;;;6.82;5.45;;;;;;;28.35;52.12;98529.88;5079995;28;20095;-76
2023/07/26 11:26:39;;;;;;;8.45;6.25;;;;;;;27.76;50.94;98537.56;5080914;28;20489;-76
2023/07/26 11:29:24;;;;;;;8.43;5.53;;;;;;;27.16;51.01;98537.31;5077603;28;20518;-77
2023/07/26 11:32:08;;;;;;;7.63;5.82;;;;;;;26.93;51.07;98526.69;5074986;28;20520;-76
2023/07/26 11:34:56;;;;;;;7.70;5.90;;;;;;;27.44;53.56;98520.78;5078500;28;20093;-76
2023/07/26 11:37:54;;;;;;;8.35;6.05;;;;;;;27.41;51.82;98526.81;5074189;28;20055;-76
2023/07/26 11:40:40;;;;;;;8.43;5.35;;;;;;;27.37;51.08;98528.56;5080601;28;20394;-76
2023/07/26 11:43:29;;;;;;;9.75;5.70;;;;;;;27.23;51.65;98526.06;5076798;28;20047;-75
2023/07/26 11:46:14;;;;;;;6.43;4.88;;;;;;;27.40;50.86;98514.47;5077316;28;20040;-76
2023/07/26 11:48:58;;;;;;;6.75;5.05;;;;;;;27.13;50.59;98527.19;5078494;28;20398;-76
2023/07/26 11:51:42;;;;;;;6.57;4.97;;;;;;;27.79;52.68;98512.66;5074805;28;20039;-76
2023/07/26 11:54:26;;;;;;;7.57;5.30;;;;;;;28.05;51.33;98517.13;5074773;28;20492;-75
2023/07/26 11:57:20;;;;;;;7.68;5.70;;;;;;;27.93;50.01;98507.03;5069949;28;20051;-74
2023/07/26 12:00:05;;;;;;;6.20;5.45;;;;;;;28.17;49.13;98513.00;5075704;28;20079;-76
2023/07/26 12:02:49;;;;;;;8.90;5.88;;;;;;;28.08;51.28;98513.78;5077579;28;20059;-77
2023/07/26 12:05:33;;;;;;;8.65;5.75;;;;;;;28.14;49.38;98508.22;5076967;28;21796;-78
2023/07/26 12:08:18;;;;;;;7.13;5.65;;;;;;;27.93;49.79;98511.66;5075741;28;20058;-75
2023/07/26 12:11:05;;;;;;;7.07;5.93;;;;;;;28.17;50.40;98504.91;5075819;28;20109;-76
2023/07/26 12:13:56;;;;;;;7.07;5.55;;;;;;;28.55;49.22;98505.94;5076569;28;20180;-74
2023/07/26 12:16:48;;;;;;;6.85;5.47;;;;;;;29.05;50.24;98493.53;5076199;28;20407;-75
2023/07/26 12:19:32;;;;;;;8.07;5.10;;;;;;;29.10;50.33;98490.63;5070106;28;20120;-76
2023/07/26 12:22:16;;;;;;;7.93;5.95;;;;;;;29.18;50.91;98494.34;5075492;28;20417;-77
2023/07/26 12:25:02;;;;;;;7.47;5.40;;;;;;;29.28;48.90;98487.75;5075105;28;22118;-77
2023/07/26 12:27:49;;;;;;;7.68;5.22;;;;;;;29.50;49.37;98500.91;5080488;28;20178;-77
2023/07/26 12:30:34;;;;;;;7.30;5.30;;;;;;;29.52;47.95;98499.78;5078895;28;20088;-77
2023/07/26 12:33:18;;;;;;;7.63;5.57;;;;;;;29.72;46.65;98493.50;5078925;28;20039;-77
2023/07/26 12:36:02;;;;;;;9.25;6.32;;;;;;;29.22;46.92;98490.66;5077176;28;20105;-77
2023/07/26 12:38:46;;;;;;;7.28;5.80;;;;;;;28.73;46.06;98493.91;5072255;28;20448;-78
2023/07/26 12:41:29;;;;;;;6.63;5.30;;;;;;;29.42;47.15;98492.91;5076160;28;20047;-77
2023/07/26 12:44:15;;;;;;;10.68;6.03;;;;;;;30.02;47.21;98492.53;5077386;28;20113;-77
2023/07/26 12:47:02;;;;;;;6.70;5.35;;;;;;;30.08;45.63;98495.81;5080137;28;20090;-77
2023/07/26 12:49:46;;;;;;;8.18;4.97;;;;;;;30.02;46.96;98485.22;5082947;28;20043;-77
2023/07/26 12:52:30;;;;;;;7.45;5.93;;;;;;;30.11;44.54;98485.09;5074951;28;20047;-76